Time;durP1;ratioP1;P1;durP2;ratioP2;P2;SDS_P1;SDS_P2;PMS_P1;PMS_P2;Temp;Humidity;BMP_temperature;BMP_pressure;BME280_temperature;BME280_humidity;BME280_pressure;Samples;Min_cycle;Max_cycle;Signal;HPM_P1;HPM_P2
2024/01/19 00:00:10;;;;;;;9.30;5.82;;;-0.20;99.90;;;;;;5062960;28;20296;-74
2024/01/19 00:02:36;;;;;;;16.70;7.65;;;-0.70;99.90;;;;;;5079482;28;20029;-74
2024/01/19 00:05:03;;;;;;;18.33;7.80;;;-0.70;99.90;;;;;;5080638;28;20103;-75
2024/01/19 00:07:29;;;;;;;19.27;7.60;;;-0.30;99.90;;;;;;5063258;28;20028;-75
2024/01/19 00:09:55;;;;;;;15.45;5.97;;;-0.20;99.90;;;;;;5080664;28;20082;-76
2024/01/19 00:12:20;;;;;;;23.45;7.10;;;-0.50;99.90;;;;;;5080202;28;20341;-76
2024/01/19 00:14:46;;;;;;;19.17;7.40;;;-0.50;99.90;;;;;;5079041;28;20024;-75
2024/01/19 00:17:12;;;;;;;18.35;8.05;;;-0.50;99.90;;;;;;5059852;28;20389;-75
2024/01/19 00:19:37;;;;;;;18.48;7.95;;;-0.50;99.90;;;;;;5060074;28;20201;-74
2024/01/19 00:22:03;;;;;;;11.85;5.40;;;-0.50;99.90;;;;;;5079655;28;20064;-76
2024/01/19 00:24:29;;;;;;;16.40;5.80;;;-0.60;99.90;;;;;;5062639;28;20053;-74
2024/01/19 00:26:55;;;;;;;7.68;4.50;;;-0.70;99.90;;;;;;5080467;28;20092;-74
2024/01/19 00:29:21;;;;;;;20.67;8.05;;;-0.60;99.90;;;;;;5078596;28;20474;-75
2024/01/19 00:31:48;;;;;;;18.55;6.40;;;-0.50;99.90;;;;;;5075070;28;20071;-75
2024/01/19 00:34:15;;;;;;;20.50;8.32;;;-0.50;99.90;;;;;;5078822;28;20343;-74
2024/01/19 00:36:41;;;;;;;19.25;7.45;;;-0.60;99.90;;;;;;5081065;28;20012;-77
2024/01/19 00:39:07;;;;;;;12.57;5.63;;;-0.60;99.90;;;;;;5079182;28;20145;-74
2024/01/19 00:41:33;;;;;;;16.08;8.35;;;-0.40;99.90;;;;;;5079906;28;20028;-75
2024/01/19 00:43:58;;;;;;;14.48;6.95;;;-0.70;99.90;;;;;;5079101;28;20036;-76
2024/01/19 00:46:24;;;;;;;20.88;8.13;;;-0.70;99.90;;;;;;5063324;28;20036;-76
2024/01/19 00:48:51;;;;;;;11.80;8.23;;;-0.70;99.90;;;;;;5081377;28;20020;-76
2024/01/19 00:51:17;;;;;;;18.42;6.50;;;-0.70;99.90;;;;;;5062511;28;20275;-76
2024/01/19 00:53:44;;;;;;;14.98;7.05;;;-0.20;99.90;;;;;;5081329;28;20051;-77
2024/01/19 00:56:10;;;;;;;18.15;5.30;;;-0.70;99.90;;;;;;5079600;28;20032;-77
2024/01/19 00:58:37;;;;;;;21.33;7.70;;;-0.70;99.90;;;;;;5078862;28;20377;-76
2024/01/19 01:01:04;;;;;;;19.13;7.70;;;-0.70;99.90;;;;;;5079078;28;20023;-75
2024/01/19 01:03:30;;;;;;;15.95;8.55;;;-0.80;99.90;;;;;;5061532;28;20025;-76
2024/01/19 01:05:57;;;;;;;19.98;7.70;;;-1.00;99.90;;;;;;5080426;28;20086;-76
2024/01/19 01:08:24;;;;;;;15.32;7.47;;;-1.00;99.90;;;;;;5081041;28;20012;-75
2024/01/19 01:10:50;;;;;;;9.75;5.18;;;-1.00;99.90;;;;;;5063094;28;20442;-75
2024/01/19 01:13:15;;;;;;;19.77;7.63;;;-1.00;99.90;;;;;;5080828;28;20067;-77
2024/01/19 01:15:41;;;;;;;22.42;8.18;;;-0.60;99.90;;;;;;5063632;28;20031;-76
2024/01/19 01:18:07;;;;;;;20.15;8.05;;;-1.10;99.90;;;;;;5062340;28;20031;-77
2024/01/19 01:20:32;;;;;;;20.25;7.10;;;-1.00;99.90;;;;;;5080745;28;20120;-77
2024/01/19 01:22:58;;;;;;;20.30;8.95;;;-1.00;99.90;;;;;;5062549;28;20317;-76
2024/01/19 01:25:24;;;;;;;30.67;9.38;;;-1.00;99.90;;;;;;5065034;28;20024;-75
2024/01/19 01:27:49;;;;;;;18.92;7.88;;;-1.00;99.90;;;;;;5082459;28;20032;-74
2024/01/19 01:30:15;;;;;;;20.02;9.60;;;-1.20;99.90;;;;;;5083295;28;20040;-75
2024/01/19 01:32:41;;;;;;;19.95;7.20;;;-1.10;99.90;;;;;;5083023;28;20037;-75
2024/01/19 01:35:07;;;;;;;24.20;9.23;;;-1.30;99.90;;;;;;5082514;28;20035;-74
2024/01/19 01:37:32;;;;;;;22.27;9.68;;;-1.40;99.90;;;;;;5084433;28;20336;-74
2024/01/19 01:39:58;;;;;;;24.58;11.45;;;-1.30;99.90;;;;;;5084332;28;20062;-75
2024/01/19 01:42:24;;;;;;;22.98;9.40;;;-1.10;99.90;;;;;;5084110;28;20031;-76
2024/01/19 01:44:49;;;;;;;22.67;10.13;;;-1.50;99.90;;;;;;5082647;28;20040;-74
2024/01/19 01:47:15;;;;;;;29.73;9.20;;;-1.50;99.90;;;;;;5082779;28;20089;-77
2024/01/19 01:49:41;;;;;;;21.83;9.25;;;-1.70;99.90;;;;;;5065022;28;20093;-75
2024/01/19 01:52:08;;;;;;;23.48;10.20;;;-1.20;99.90;;;;;;5084671;28;20036;-76
2024/01/19 01:54:34;;;;;;;24.38;10.05;;;-1.70;99.90;;;;;;5083027;28;20382;-74
2024/01/19 01:57:00;;;;;;;22.23;9.13;;;-1.70;99.90;;;;;;5066133;28;20020;-75
2024/01/19 01:59:26;;;;;;;23.55;10.18;;;-1.40;99.90;;;;;;5084107;28;20021;-75
2024/01/19 02:01:52;;;;;;;24.45;9.20;;;-0.80;99.90;;;;;;5081347;28;20085;-77
2024/01/19 02:04:19;;;;;;;20.38;9.27;;;-2.00;99.90;;;;;;5081620;28;20043;-76
2024/01/19 02:06:44;;;;;;;18.77;8.90;;;-2.00;99.90;;;;;;5082778;28;20032;-74
2024/01/19 02:09:10;;;;;;;21.00;8.88;;;-2.10;99.90;;;;;;5080647;28;20047;-77
2024/01/19 02:11:37;;;;;;;20.08;8.68;;;-2.10;99.90;;;;;;5081293;28;20318;-75
2024/01/19 02:14:05;;;;;;;23.50;9.43;;;-2.30;99.90;;;;;;5081029;28;20089;-75
2024/01/19 02:16:31;;;;;;;14.90;7.00;;;-2.30;99.90;;;;;;5082609;28;20020;-75
2024/01/19 02:18:57;;;;;;;22.05;8.82;;;-2.20;99.90;;;;;;5064046;28;20259;-75
2024/01/19 02:21:23;;;;;;;22.55;9.07;;;-2.40;99.90;;;;;;5080585;28;20038;-74
2024/01/19 02:24:03;;;;;;;23.98;8.18;;;-2.50;99.90;;;;;;5081752;28;20032;-75
2024/01/19 02:26:34;;;;;;;31.75;10.05;;;-2.60;99.90;;;;;;5083078;28;20028;-75
2024/01/19 02:29:00;;;;;;;23.48;7.63;;;-2.50;99.90;;;;;;5063415;28;20091;-75
2024/01/19 02:31:26;;;;;;;17.48;7.60;;;-2.50;99.90;;;;;;5080594;28;20417;-74
2024/01/19 02:33:52;;;;;;;19.70;8.73;;;-2.40;99.90;;;;;;5081550;28;20044;-75
2024/01/19 02:36:18;;;;;;;22.33;9.02;;;-2.60;99.90;;;;;;5079909;28;20036;-75
2024/01/19 02:38:44;;;;;;;26.25;8.93;;;-2.60;99.90;;;;;;5081362;28;20471;-76
2024/01/19 02:41:09;;;;;;;19.95;7.90;;;-2.20;99.90;;;;;;5064365;28;20502;-78
2024/01/19 02:43:35;;;;;;;13.18;6.15;;;-2.60;99.90;;;;;;5065767;28;20021;-75
2024/01/19 02:46:01;;;;;;;20.10;9.27;;;-2.10;99.90;;;;;;5083491;28;20043;-76
2024/01/19 02:48:27;;;;;;;20.88;8.48;;;-2.40;99.90;;;;;;5062422;28;20063;-76
2024/01/19 02:50:53;;;;;;;19.75;7.43;;;-2.40;99.90;;;;;;5064413;28;20092;-76
2024/01/19 02:53:19;;;;;;;17.08;7.65;;;-2.20;99.90;;;;;;5082812;28;20340;-74
2024/01/19 02:55:45;;;;;;;13.00;6.13;;;-2.20;99.90;;;;;;5062254;28;20024;-76
2024/01/19 02:58:10;;;;;;;20.52;9.35;;;-2.10;99.90;;;;;;5062162;28;20024;-76
2024/01/19 03:00:36;;;;;;;17.30;7.93;;;-2.10;99.90;;;;;;5079164;28;20043;-78
2024/01/19 03:03:02;;;;;;;23.75;9.48;;;-1.70;99.90;;;;;;5063482;28;20024;-75
2024/01/19 03:05:27;;;;;;;29.95;9.75;;;-1.20;99.90;;;;;;5082765;28;20255;-78
2024/01/19 03:07:56;;;;;;;24.65;9.43;;;-2.00;99.90;;;;;;5080358;28;20024;-76
2024/01/19 03:10:22;;;;;;;25.53;10.13;;;-1.70;99.90;;;;;;5080057;28;20025;-74
2024/01/19 03:12:47;;;;;;;29.85;10.48;;;-2.00;99.90;;;;;;5081727;28;20375;-76
2024/01/19 03:15:13;;;;;;;20.83;9.35;;;-2.00;99.90;;;;;;5059506;28;20266;-74
2024/01/19 03:17:39;;;;;;;23.60;11.10;;;-2.00;99.90;;;;;;5081921;28;20036;-74
2024/01/19 03:20:05;;;;;;;28.02;12.18;;;-2.00;99.90;;;;;;5082968;28;20039;-76
2024/01/19 03:22:31;;;;;;;24.30;11.02;;;-2.00;99.90;;;;;;5082194;28;20020;-77
2024/01/19 03:24:57;;;;;;;22.02;10.65;;;-2.00;99.90;;;;;;5062401;28;20029;-74
2024/01/19 03:27:23;;;;;;;26.33;9.75;;;-2.00;99.90;;;;;;5080370;28;20336;-75
2024/01/19 03:29:48;;;;;;;29.45;10.80;;;-1.10;99.90;;;;;;5064698;28;20437;-75
2024/01/19 03:32:14;;;;;;;23.23;10.82;;;-2.00;99.90;;;;;;5062499;28;20267;-74
2024/01/19 03:34:40;;;;;;;29.13;11.10;;;-1.50;99.90;;;;;;5081026;28;20458;-75
2024/01/19 03:37:06;;;;;;;28.35;11.10;;;-1.40;99.90;;;;;;5059969;28;20566;-75
2024/01/19 03:39:32;;;;;;;26.77;11.40;;;-2.30;99.90;;;;;;5064184;28;20032;-75
2024/01/19 03:41:59;;;;;;;29.13;11.07;;;-2.30;99.90;;;;;;5080818;28;20403;-74
2024/01/19 03:44:24;;;;;;;26.23;10.88;;;-2.20;99.90;;;;;;5081423;28;20024;-76
2024/01/19 03:46:50;;;;;;;25.30;10.10;;;-2.50;99.90;;;;;;5061808;28;20362;-75
2024/01/19 03:49:16;;;;;;;22.40;10.40;;;-2.40;99.90;;;;;;5079683;28;20320;-75
2024/01/19 03:52:02;;;;;;;18.65;9.18;;;-1.90;99.90;;;;;;5076673;28;20029;-73
2024/01/19 03:54:28;;;;;;;21.98;9.35;;;-2.60;99.90;;;;;;5062180;28;20029;-74
2024/01/19 03:56:55;;;;;;;22.67;9.43;;;-2.60;99.90;;;;;;5079276;28;20048;-76
2024/01/19 03:59:21;;;;;;;20.05;10.40;;;-2.70;99.90;;;;;;5059704;28;20043;-76
2024/01/19 04:01:46;;;;;;;20.52;8.60;;;-2.80;99.90;;;;;;5060506;28;20478;-74
2024/01/19 04:04:12;;;;;;;22.58;10.18;;;-3.00;99.90;;;;;;5067560;28;20069;-75
2024/01/19 04:06:37;;;;;;;24.40;9.13;;;-2.80;99.90;;;;;;5060482;28;20093;-74
2024/01/19 04:09:03;;;;;;;21.73;9.43;;;-3.00;99.90;;;;;;5071818;28;20025;-75
2024/01/19 04:11:29;;;;;;;22.45;8.70;;;-1.80;99.90;;;;;;5059524;28;20325;-75
2024/01/19 04:13:55;;;;;;;23.73;7.78;;;-2.90;99.90;;;;;;5060425;28;20355;-76
2024/01/19 04:16:20;;;;;;;18.83;9.00;;;-2.80;99.90;;;;;;5059056;28;20028;-75
2024/01/19 04:18:46;;;;;;;22.45;8.75;;;-2.90;99.90;;;;;;5060700;28;20029;-75
2024/01/19 04:21:12;;;;;;;21.30;8.82;;;-2.90;99.90;;;;;;5041710;28;20052;-75
2024/01/19 04:23:37;;;;;;;20.50;8.73;;;-1.70;99.90;;;;;;5043571;28;20044;-76
2024/01/19 04:26:03;;;;;;;23.80;9.63;;;-3.10;99.90;;;;;;5059528;28;20190;-76
2024/01/19 04:28:29;;;;;;;27.17;8.38;;;-3.10;99.90;;;;;;5059686;28;20029;-76
2024/01/19 04:30:55;;;;;;;18.35;8.73;;;-3.10;99.90;;;;;;5061341;28;20055;-74
2024/01/19 04:33:20;;;;;;;23.38;8.73;;;-3.30;99.90;;;;;;5080712;28;20256;-75
2024/01/19 04:35:46;;;;;;;28.15;9.63;;;-2.30;99.90;;;;;;5080029;28;20020;-76
2024/01/19 04:38:11;;;;;;;24.05;8.85;;;-2.40;99.90;;;;;;5081433;28;20024;-75
2024/01/19 04:40:37;;;;;;;21.38;8.40;;;-3.20;99.90;;;;;;5101253;28;20035;-75
2024/01/19 04:43:03;;;;;;;20.55;8.23;;;-3.00;99.90;;;;;;5101055;28;20169;-76
2024/01/19 04:45:28;;;;;;;15.77;8.20;;;-3.00;99.90;;;;;;5101057;28;20036;-74
2024/01/19 04:47:54;;;;;;;23.33;8.75;;;-3.10;99.90;;;;;;5099877;28;20016;-76
2024/01/19 04:50:20;;;;;;;18.63;8.82;;;-3.20;99.90;;;;;;5099811;28;20024;-75
2024/01/19 04:52:45;;;;;;;20.63;8.50;;;-2.80;99.90;;;;;;5100848;28;20270;-76
2024/01/19 04:55:11;;;;;;;20.00;10.13;;;-3.20;99.90;;;;;;5100904;28;20104;-75
2024/01/19 04:57:37;;;;;;;23.60;8.65;;;-3.20;99.90;;;;;;5100471;28;20035;-76
2024/01/19 05:00:04;;;;;;;16.55;8.05;;;-3.30;99.90;;;;;;5102769;28;20260;-75
2024/01/19 05:02:32;;;;;;;23.55;8.55;;;-3.30;99.90;;;;;;5105668;28;20089;-76
2024/01/19 05:04:59;;;;;;;22.88;9.90;;;-3.50;99.90;;;;;;5105473;28;20040;-76
2024/01/19 05:07:26;;;;;;;22.67;9.77;;;-3.60;99.90;;;;;;5102431;28;20082;-75
2024/01/19 05:09:52;;;;;;;17.88;8.00;;;-3.40;99.90;;;;;;5101929;28;20027;-75
2024/01/19 05:12:18;;;;;;;16.92;8.77;;;-3.60;99.90;;;;;;5100402;28;20386;-75
2024/01/19 05:14:46;;;;;;;18.65;9.23;;;-3.60;99.90;;;;;;5100933;28;20032;-75
2024/01/19 05:17:11;;;;;;;23.60;10.18;;;-3.60;99.90;;;;;;5101068;28;20024;-75
2024/01/19 05:19:37;;;;;;;24.13;10.10;;;-3.50;99.90;;;;;;5091588;28;20038;-75
2024/01/19 05:22:03;;;;;;;24.63;9.98;;;-3.50;99.90;;;;;;5080909;28;20074;-75
2024/01/19 05:24:28;;;;;;;20.88;9.68;;;-3.50;99.90;;;;;;5081482;28;20312;-75
2024/01/19 05:26:54;;;;;;;23.63;9.20;;;-3.40;99.90;;;;;;5082197;28;20024;-75
2024/01/19 05:29:21;;;;;;;21.13;8.20;;;-3.40;99.90;;;;;;5082637;28;20264;-76
2024/01/19 05:31:46;;;;;;;20.58;8.60;;;-3.20;99.90;;;;;;5064569;28;20070;-75
2024/01/19 05:34:12;;;;;;;22.42;8.80;;;-3.10;99.90;;;;;;5051980;28;20052;-75
2024/01/19 05:36:38;;;;;;;18.42;7.78;;;-3.10;99.90;;;;;;5082130;28;20033;-75
2024/01/19 05:39:04;;;;;;;24.88;9.52;;;-1.90;99.90;;;;;;5063313;28;20062;-75
2024/01/19 05:41:30;;;;;;;18.05;8.80;;;-3.20;99.90;;;;;;5082341;28;20218;-75
2024/01/19 05:43:55;;;;;;;17.83;8.80;;;-2.70;99.90;;;;;;5063903;28;20305;-75
2024/01/19 05:46:21;;;;;;;23.23;7.57;;;-1.80;99.90;;;;;;5064842;28;20024;-76
2024/01/19 05:48:47;;;;;;;23.38;9.77;;;-2.40;99.90;;;;;;5082993;28;20024;-77
2024/01/19 05:51:16;;;;;;;29.23;9.40;;;-3.00;99.90;;;;;;5064643;28;20059;-75
2024/01/19 05:53:42;;;;;;;;;;;-3.20;99.90;;;;;;5064550;28;20220;-75
2024/01/19 05:56:07;;;;;;;19.60;9.60;;;-3.30;99.90;;;;;;5083155;28;19908;-76
2024/01/19 05:58:33;;;;;;;23.60;8.98;;;-3.20;99.90;;;;;;5082359;28;20075;-76
2024/01/19 06:01:02;;;;;;;24.00;10.25;;;-3.50;99.90;;;;;;5082627;28;20024;-75
2024/01/19 06:03:29;;;;;;;21.38;9.93;;;-3.40;99.90;;;;;;5081977;28;20024;-76
2024/01/19 06:05:55;;;;;;;24.58;9.18;;;-3.40;99.90;;;;;;5064292;28;20220;-77
2024/01/19 06:08:21;;;;;;;18.67;8.60;;;-3.40;99.90;;;;;;5082658;28;20021;-75
2024/01/19 06:10:47;;;;;;;17.38;9.00;;;-3.40;99.90;;;;;;5063691;28;20081;-76
2024/01/19 06:13:13;;;;;;;27.70;9.43;;;-3.50;99.90;;;;;;5077898;28;20089;-76
2024/01/19 06:15:39;;;;;;;26.63;9.85;;;-3.10;99.90;;;;;;5082451;28;20040;-76
2024/01/19 06:18:05;;;;;;;23.63;8.48;;;-3.60;99.90;;;;;;5080558;28;20024;-76
2024/01/19 06:20:32;;;;;;;17.27;7.82;;;-3.60;99.90;;;;;;5078899;28;20025;-76
2024/01/19 06:22:57;;;;;;;20.17;8.52;;;-2.20;99.90;;;;;;5058098;28;20027;-75
2024/01/19 06:25:23;;;;;;;20.85;8.65;;;-3.60;99.90;;;;;;5082461;28;20029;-75
2024/01/19 06:27:49;;;;;;;16.30;6.97;;;-3.50;99.90;;;;;;5064202;28;20348;-75
2024/01/19 06:30:14;;;;;;;22.08;9.38;;;-3.50;99.90;;;;;;5081652;28;20348;-75
2024/01/19 06:32:40;;;;;;;19.27;9.32;;;-3.50;99.90;;;;;;5081738;28;20044;-76
2024/01/19 06:35:06;;;;;;;18.92;7.45;;;-2.40;99.90;;;;;;5081860;28;20079;-76
2024/01/19 06:37:33;;;;;;;23.42;9.18;;;-3.70;99.90;;;;;;5080685;28;20230;-75
2024/01/19 06:39:58;;;;;;;18.63;8.13;;;-3.80;99.90;;;;;;5063929;28;20023;-76
2024/01/19 06:42:24;;;;;;;23.20;8.93;;;-3.60;99.90;;;;;;5063614;28;20017;-77
2024/01/19 06:44:49;;;;;;;22.73;7.93;;;-3.60;99.90;;;;;;5082356;28;20052;-75
2024/01/19 06:47:18;;;;;;;15.05;7.40;;;-3.40;99.90;;;;;;5081754;28;20056;-77
2024/01/19 06:49:45;;;;;;;23.48;8.50;;;-3.30;99.90;;;;;;5081860;28;20016;-75
2024/01/19 06:52:10;;;;;;;22.73;7.82;;;-3.10;99.90;;;;;;5081277;28;20126;-75
2024/01/19 06:54:36;;;;;;;21.60;8.88;;;-3.30;99.90;;;;;;5064223;28;20044;-76
2024/01/19 06:57:02;;;;;;;23.08;7.72;;;-3.50;99.90;;;;;;5082082;28;20012;-76
2024/01/19 06:59:27;;;;;;;18.55;8.77;;;-3.70;99.90;;;;;;5063588;28;20024;-76
2024/01/19 07:01:53;;;;;;;15.93;7.53;;;-3.80;99.90;;;;;;5063001;28;20055;-76
2024/01/19 07:04:18;;;;;;;16.38;7.78;;;-3.90;99.90;;;;;;5081166;28;20021;-76
2024/01/19 07:06:44;;;;;;;19.77;9.30;;;-4.00;99.90;;;;;;5063535;28;20246;-75
2024/01/19 07:09:10;;;;;;;22.42;8.95;;;-4.10;99.90;;;;;;5063036;28;20032;-76
2024/01/19 07:11:35;;;;;;;23.40;8.52;;;-4.90;99.90;;;;;;5063306;28;20213;-76
2024/01/19 07:14:01;;;;;;;27.67;7.20;;;-4.30;99.90;;;;;;5080828;28;20024;-76
2024/01/19 07:16:27;;;;;;;19.13;8.60;;;-3.10;99.90;;;;;;5063432;28;20040;-76
2024/01/19 07:18:52;;;;;;;20.27;7.75;;;-4.10;99.90;;;;;;5080968;28;20031;-75
2024/01/19 07:21:18;;;;;;;20.13;8.45;;;-4.00;99.90;;;;;;5081163;28;20025;-75
2024/01/19 07:23:44;;;;;;;16.75;7.90;;;-4.00;99.90;;;;;;5080701;28;20021;-76
2024/01/19 07:26:10;;;;;;;21.65;7.05;;;-3.90;99.90;;;;;;5079507;28;20051;-76
2024/01/19 07:28:36;;;;;;;20.25;8.70;;;-3.90;99.90;;;;;;5080673;28;20017;-75
2024/01/19 07:31:01;;;;;;;16.60;8.30;;;-3.00;99.90;;;;;;5078822;28;20072;-77
2024/01/19 07:33:28;;;;;;;23.00;9.25;;;-3.80;99.90;;;;;;5062263;28;20036;-76
2024/01/19 07:35:54;;;;;;;14.95;7.20;;;-3.70;99.90;;;;;;5081138;28;20258;-75
2024/01/19 07:38:20;;;;;;;17.75;8.27;;;-3.60;99.90;;;;;;5062981;28;20111;-76
2024/01/19 07:40:46;;;;;;;17.25;7.80;;;-3.60;99.90;;;;;;5080966;28;20209;-76
2024/01/19 07:43:11;;;;;;;26.98;8.43;;;-3.30;99.90;;;;;;5080729;28;20025;-75
2024/01/19 07:45:37;;;;;;;19.85;9.15;;;-3.40;99.90;;;;;;5080534;28;20016;-75
2024/01/19 07:48:03;;;;;;;17.60;8.30;;;-3.40;99.90;;;;;;5061204;28;20103;-75
2024/01/19 07:50:29;;;;;;;15.45;7.72;;;-3.30;99.90;;;;;;5062555;28;20029;-75
2024/01/19 07:52:55;;;;;;;25.33;8.93;;;-3.10;99.90;;;;;;5079875;28;20044;-76
2024/01/19 07:55:20;;;;;;;23.27;9.15;;;-3.00;99.90;;;;;;5061472;28;20020;-76
2024/01/19 07:57:49;;;;;;;19.20;9.32;;;-2.80;99.90;;;;;;5059577;28;20033;-75
2024/01/19 08:00:15;;;;;;;21.35;8.48;;;-2.70;99.90;;;;;;5062353;28;20028;-76
2024/01/19 08:02:43;;;;;;;18.55;8.63;;;-2.50;99.90;;;;;;5063099;28;20020;-75
2024/01/19 08:05:12;;;;;;;19.92;8.35;;;-2.50;99.90;;;;;;5061946;28;20025;-76
2024/01/19 08:07:40;;;;;;;20.60;9.80;;;-2.30;99.90;;;;;;5062049;28;20046;-76
2024/01/19 08:10:15;;;;;;;31.27;11.32;;;-2.10;99.90;;;;;;5079720;28;20104;-76
2024/01/19 08:12:43;;;;;;;28.67;11.07;;;-1.90;99.90;;;;;;5062176;28;20048;-76
2024/01/19 08:15:09;;;;;;;19.55;8.65;;;-1.60;99.90;;;;;;5080145;28;20289;-76
2024/01/19 08:17:35;;;;;;;30.33;11.85;;;-1.30;99.90;;;;;;5061844;28;20035;-75
2024/01/19 08:20:00;;;;;;;26.00;10.73;;;-1.20;99.90;;;;;;5080224;28;20046;-76
2024/01/19 08:22:29;;;;;;;24.73;10.20;;;-1.40;99.90;;;;;;5062110;28;20072;-76
2024/01/19 08:25:00;;;;;;;21.80;9.88;;;-1.40;99.90;;;;;;5062056;28;20013;-75
2024/01/19 08:27:27;;;;;;;20.08;8.93;;;-1.30;99.90;;;;;;5079410;28;20043;-76
2024/01/19 08:29:53;;;;;;;30.02;10.20;;;-1.40;99.90;;;;;;5061829;28;20028;-77
2024/01/19 08:32:19;;;;;;;24.17;10.55;;;-1.50;99.90;;;;;;5079720;28;20097;-76
2024/01/19 08:34:45;;;;;;;26.75;12.15;;;-1.40;99.90;;;;;;5079163;28;20012;-77
2024/01/19 08:37:14;;;;;;;24.08;12.30;;;-1.40;99.90;;;;;;5062632;28;20047;-75
2024/01/19 08:39:39;;;;;;;27.80;11.82;;;-1.30;99.90;;;;;;5063218;28;20062;-76
2024/01/19 08:42:06;;;;;;;25.83;10.80;;;-1.10;99.90;;;;;;5080163;28;20032;-76
2024/01/19 08:44:33;;;;;;;30.23;12.35;;;-1.00;99.90;;;;;;5061850;28;20020;-76
2024/01/19 08:46:59;;;;;;;24.88;12.52;;;-0.90;99.90;;;;;;5058008;28;20542;-77
2024/01/19 08:49:27;;;;;;;25.27;11.00;;;-0.70;99.90;;;;;;5048611;28;20025;-76
2024/01/19 08:51:53;;;;;;;18.60;9.32;;;-0.60;99.90;;;;;;5063322;28;20033;-76
2024/01/19 08:54:19;;;;;;;25.17;11.27;;;-0.50;99.90;;;;;;5041321;28;20373;-77
2024/01/19 08:56:44;;;;;;;29.83;10.82;;;-0.50;99.90;;;;;;5043609;28;20021;-76
2024/01/19 08:59:18;;;;;;;27.30;10.90;;;-0.50;99.90;;;;;;5045080;28;20029;-77
2024/01/19 09:01:47;;;;;;;22.60;9.82;;;-0.40;99.90;;;;;;5053040;28;20732;-76
2024/01/19 09:04:13;;;;;;;24.35;11.02;;;-0.60;99.90;;;;;;5052036;28;20024;-77
2024/01/19 09:06:39;;;;;;;19.80;9.90;;;-0.40;99.90;;;;;;5052482;28;20024;-77
2024/01/19 09:09:05;;;;;;;23.02;9.93;;;-0.20;99.90;;;;;;5071300;28;20044;-78
2024/01/19 09:11:34;;;;;;;29.67;10.57;;;-0.10;99.90;;;;;;5071055;28;20043;-77
2024/01/19 09:14:00;;;;;;;26.42;9.73;;;0.10;99.90;;;;;;5070189;28;20028;-76
2024/01/19 09:16:25;;;;;;;29.48;10.27;;;0.20;99.90;;;;;;5051842;28;20028;-78
2024/01/19 09:18:51;;;;;;;23.92;10.60;;;-0.10;99.90;;;;;;5051510;28;20031;-76
2024/01/19 09:21:19;;;;;;;23.95;9.85;;;-0.20;99.90;;;;;;5069499;28;20153;-77
2024/01/19 09:23:45;;;;;;;24.85;11.07;;;0.10;99.90;;;;;;5069538;28;20039;-77
2024/01/19 09:26:30;;;;;;;24.33;11.73;;;0.50;99.90;;;;;;5050968;28;20029;-76
2024/01/19 09:29:07;;;;;;;26.75;11.68;;;0.30;99.90;;;;;;5051737;28;20043;-77
2024/01/19 09:31:57;;;;;;;21.80;9.68;;;0.10;99.90;;;;;;5068452;28;20052;-76
2024/01/19 09:34:23;;;;;;;;;;;0.10;99.90;;;;;;5069960;28;20020;-77
2024/01/19 09:36:49;;;;;;;35.85;14.02;;;0.10;99.90;;;;;;5066975;28;20246;-77
2024/01/19 09:39:18;;;;;;;33.03;14.38;;;0.40;99.90;;;;;;5069530;28;20021;-77
2024/01/19 09:41:52;;;;;;;28.40;12.75;;;0.10;99.90;;;;;;5068585;28;20024;-77
2024/01/19 09:44:20;;;;;;;29.52;12.77;;;0.20;99.90;;;;;;5067606;28;20025;-77
2024/01/19 09:47:30;;;;;;;22.48;10.18;;;0.40;99.90;;;;;;5070118;28;20052;-76
2024/01/19 09:50:06;;;;;;;21.65;9.55;;;0.40;99.90;;;;;;5071687;28;20550;-76
2024/01/19 09:52:59;;;;;;;25.42;10.75;;;0.40;99.90;;;;;;5073061;28;20568;-76
2024/01/19 09:55:54;;;;;;;19.23;9.90;;;0.40;99.90;;;;;;5070822;28;20097;-76
2024/01/19 09:58:25;;;;;;;23.63;11.05;;;0.60;99.90;;;;;;5070657;28;20017;-76
2024/01/19 10:00:51;;;;;;;17.73;8.52;;;0.60;99.90;;;;;;5069431;28;20085;-75
2024/01/19 10:03:17;;;;;;;17.45;8.80;;;0.40;99.90;;;;;;5069649;28;20025;-76
2024/01/19 10:05:44;;;;;;;24.13;9.27;;;0.50;99.90;;;;;;5070802;28;20036;-75
2024/01/19 10:08:12;;;;;;;23.52;9.98;;;0.50;99.90;;;;;;5069777;28;20044;-76
2024/01/19 10:10:41;;;;;;;21.13;9.98;;;0.70;99.90;;;;;;5071932;28;20025;-76
2024/01/19 10:13:07;;;;;;;21.65;10.43;;;0.20;99.90;;;;;;5070727;28;20032;-75
2024/01/19 10:15:33;;;;;;;25.70;11.18;;;0.20;99.90;;;;;;5071538;28;20040;-76
2024/01/19 10:18:00;;;;;;;25.40;12.30;;;0.10;99.90;;;;;;5071618;28;20552;-75
2024/01/19 10:20:26;;;;;;;35.47;14.25;;;0.00;99.90;;;;;;5072864;28;20028;-76
2024/01/19 10:22:52;;;;;;;25.00;12.60;;;0.30;99.90;;;;;;5089783;28;20032;-72
2024/01/19 10:25:19;;;;;;;30.08;12.52;;;-0.10;99.90;;;;;;5075264;28;20107;-72
2024/01/19 10:27:50;;;;;;;20.08;8.77;;;-0.20;99.90;;;;;;5073706;28;20097;-74
2024/01/19 10:30:18;;;;;;;21.33;9.25;;;-0.20;99.90;;;;;;5075054;28;20041;-75
2024/01/19 10:32:45;;;;;;;17.23;8.95;;;-0.30;99.90;;;;;;5059651;28;20037;-75
2024/01/19 10:35:23;;;;;;;27.75;11.70;;;-0.30;99.90;;;;;;5051613;28;20025;-75
2024/01/19 10:38:05;;;;;;;18.20;9.13;;;-0.10;99.90;;;;;;5033202;28;20112;-75
2024/01/19 10:40:33;;;;;;;23.52;8.68;;;0.00;99.90;;;;;;5033759;28;20036;-75
2024/01/19 10:43:04;;;;;;;26.08;8.85;;;0.10;99.90;;;;;;5033618;28;20378;-75
2024/01/19 10:45:34;;;;;;;26.58;9.65;;;0.40;99.90;;;;;;5051823;28;20036;-75
2024/01/19 10:48:03;;;;;;;12.02;6.32;;;0.70;99.90;;;;;;5051788;28;20044;-76
2024/01/19 10:50:30;;;;;;;23.00;10.43;;;1.30;99.90;;;;;;5051785;28;20087;-75
2024/01/19 10:52:58;;;;;;;22.13;9.02;;;0.70;99.90;;;;;;5051556;28;20115;-76
2024/01/19 10:55:28;;;;;;;25.40;10.45;;;0.80;99.90;;;;;;5033633;28;20021;-76
2024/01/19 10:57:55;;;;;;;28.73;11.75;;;0.80;99.90;;;;;;5032731;28;20485;-75
2024/01/19 11:00:26;;;;;;;20.98;10.38;;;0.40;99.90;;;;;;5052122;28;20029;-75
2024/01/19 11:02:57;;;;;;;32.90;14.25;;;0.20;99.90;;;;;;5051852;28;20032;-75
2024/01/19 11:05:23;;;;;;;26.23;13.15;;;-0.20;99.90;;;;;;5052873;28;20474;-74
2024/01/19 11:07:51;;;;;;;28.75;10.82;;;-0.40;99.90;;;;;;5037750;28;20485;-75
2024/01/19 11:10:17;;;;;;;31.60;12.82;;;-0.40;99.90;;;;;;5036365;28;20029;-75
2024/01/19 11:12:51;;;;;;;24.73;12.02;;;-0.50;99.90;;;;;;5033176;28;20029;-75
2024/01/19 11:15:30;;;;;;;34.28;14.05;;;-0.30;99.90;;;;;;5051242;28;20029;-75
2024/01/19 11:17:59;;;;;;;22.50;10.80;;;-0.30;99.90;;;;;;5052092;28;20392;-75
2024/01/19 11:20:24;;;;;;;27.20;11.43;;;-0.40;99.90;;;;;;5071116;28;20051;-75
2024/01/19 11:22:53;;;;;;;30.33;12.27;;;-0.30;99.90;;;;;;5071068;28;20485;-75
2024/01/19 11:25:43;;;;;;;36.22;12.75;;;-0.40;99.90;;;;;;5070685;28;20436;-72
2024/01/19 11:28:15;;;;;;;22.42;9.68;;;-0.30;99.90;;;;;;5070468;28;20103;-72
2024/01/19 11:30:53;;;;;;;22.27;8.65;;;-0.30;99.90;;;;;;5070657;28;20487;-73
2024/01/19 11:33:19;;;;;;;24.80;10.07;;;-0.20;99.90;;;;;;5070736;28;20033;-74
2024/01/19 11:35:51;;;;;;;14.68;7.68;;;-0.30;99.90;;;;;;5052861;28;20021;-74
2024/01/19 11:38:38;;;;;;;23.10;9.95;;;-0.20;99.90;;;;;;5053005;28;20389;-73
2024/01/19 11:41:04;;;;;;;16.92;8.48;;;0.00;99.90;;;;;;5070367;28;20469;-74
2024/01/19 11:43:38;;;;;;;22.10;9.45;;;0.20;99.90;;;;;;5052726;28;20039;-75
2024/01/19 11:46:04;;;;;;;20.13;9.10;;;0.30;99.90;;;;;;5070883;28;20096;-74
2024/01/19 11:48:44;;;;;;;32.00;12.95;;;0.10;99.90;;;;;;5073600;28;20020;-75
2024/01/19 11:51:28;;;;;;;;;;;0.10;99.90;;;;;;5071059;28;20024;-74
2024/01/19 11:53:55;;;;;;;22.52;10.75;;;0.20;99.90;;;;;;5052594;28;19916;-75
2024/01/19 11:56:22;;;;;;;30.20;12.90;;;0.30;99.90;;;;;;5068699;28;20451;-75
2024/01/19 11:58:48;;;;;;;14.57;7.00;;;0.20;99.90;;;;;;5052105;28;20021;-74
2024/01/19 12:01:14;;;;;;;29.02;12.27;;;0.70;99.90;;;;;;5071636;28;20099;-75
2024/01/19 12:03:40;;;;;;;22.92;9.57;;;0.20;99.90;;;;;;5057203;28;20028;-75
2024/01/19 12:06:06;;;;;;;13.75;6.40;;;0.10;99.90;;;;;;5074834;28;20020;-74
2024/01/19 12:08:32;;;;;;;21.40;8.95;;;0.40;99.90;;;;;;5055879;28;20021;-75
2024/01/19 12:11:12;;;;;;;16.48;7.82;;;0.20;99.90;;;;;;5071197;28;20142;-75
2024/01/19 12:13:42;;;;;;;16.38;7.47;;;0.30;99.90;;;;;;5051218;28;20039;-75
2024/01/19 12:16:08;;;;;;;12.80;7.00;;;0.80;99.90;;;;;;5052038;28;20074;-75
2024/01/19 12:18:35;;;;;;;17.98;9.32;;;0.40;99.90;;;;;;5052192;28;20020;-75
2024/01/19 12:21:02;;;;;;;20.58;9.52;;;0.40;99.90;;;;;;5069824;28;20024;-75
2024/01/19 12:23:32;;;;;;;23.90;8.05;;;0.20;99.90;;;;;;5069688;28;20027;-75
2024/01/19 12:26:00;;;;;;;17.55;8.63;;;0.30;99.90;;;;;;5069711;28;20047;-75
2024/01/19 12:28:26;;;;;;;25.80;10.52;;;0.20;99.90;;;;;;5052209;28;20059;-74
2024/01/19 12:30:52;;;;;;;18.25;8.30;;;0.40;99.90;;;;;;5070962;28;20165;-75
2024/01/19 12:33:28;;;;;;;18.17;9.38;;;0.70;99.90;;;;;;5088783;28;20065;-74
2024/01/19 12:36:10;;;;;;;15.48;8.32;;;0.70;99.90;;;;;;5088786;28;20028;-75
2024/01/19 12:38:36;;;;;;;17.50;8.00;;;1.10;99.90;;;;;;5088780;28;20024;-75